Terminal Aerodrome Forecast
Issued by NWS

Home | Current Version | Previous Version | Text Only | Print | Product List | Glossary On
Versions: 1 2 3 4 5 6 7 8 9 10 11 12 13
000
FTUS43 KLSX 300800 AAA
TAFUIN
TAF AMD
KUIN 300805Z 3008/0106 20003KT P6SM SKC
     FM301130 03007KT P6SM OVC006
     FM301600 VRB05KT P6SM SCT006 BKN015
     FM301800 10006KT P6SM SCT015 BKN250=

USA.gov is the U.S. government's official web portal to all federal, state and local government web resources and services.